Time,TemperatureF,DewpointF,PressureIn,WindDirection,WindDirectionDegrees,WindSpeedMPH,WindSpeedGustMPH,Humidity,HourlyPrecipIn,Conditions,Clouds,dailyrainin,SoftwareType,DateUTC
2013-05-09 00:04:00,60.5,57.0,29.93,East,101,0.0,0.0,89,0.00,,,0.00,weatherlink.com 1.10,2013-05-09 04:04:00,
2013-05-09 00:19:00,60.3,57.0,29.93,East,101,0.0,0.0,88,0.00,,,0.00,weatherlink.com 1.10,2013-05-09 04:19:00,
2013-05-09 00:34:00,60.4,57.0,29.93,East,101,0.0,0.0,89,0.00,,,0.00,weatherlink.com 1.10,2013-05-09 04:34:00,
2013-05-09 00:49:00,60.4,57.0,29.93,ESE,102,0.0,0.0,88,0.00,,,0.00,weatherlink.com 1.10,2013-05-09 04:49:00,
2013-05-09 01:04:00,61.4,57.0,29.93,East,94,0.0,1.0,84,0.00,,,0.00,weatherlink.com 1.10,2013-05-09 05:04:00,
2013-05-09 01:19:00,62.0,56.0,29.92,East,93,0.0,0.0,81,0.00,,,0.00,weatherlink.com 1.10,2013-05-09 05:19:00,
2013-05-09 01:34:00,62.1,56.0,29.92,SSE,159,0.0,2.0,80,0.00,,,0.00,weatherlink.com 1.10,2013-05-09 05:34:00,
2013-05-09 01:49:00,62.7,56.0,29.92,ENE,71,0.0,1.0,78,0.00,,,0.00,weatherlink.com 1.10,2013-05-09 05:49:00,
2013-05-09 02:04:00,60.9,56.0,29.92,ENE,73,0.0,0.0,83,0.00,,,0.00,weatherlink.com 1.10,2013-05-09 06:04:00,
2013-05-09 02:19:00,58.2,55.0,29.92,SSE,158,0.0,0.0,89,0.00,,,0.00,weatherlink.com 1.10,2013-05-09 06:19:00,
2013-05-09 02:34:00,57.6,55.0,29.92,SSE,150,0.0,0.0,91,0.00,,,0.00,weatherlink.com 1.10,2013-05-09 06:34:00,
2013-05-09 02:49:00,57.2,55.0,29.92,SSW,203,0.0,0.0,93,0.00,,,0.00,weatherlink.com 1.10,2013-05-09 06:49:00,
2013-05-09 03:04:00,57.1,55.0,29.92,SSW,203,0.0,0.0,93,0.00,,,0.00,weatherlink.com 1.10,2013-05-09 07:04:00,
2013-05-09 03:19:00,57.5,56.0,29.92,SE,145,0.0,0.0,94,0.00,,,0.00,weatherlink.com 1.10,2013-05-09 07:19:00,
2013-05-09 03:34:00,57.2,56.0,29.92,SE,145,0.0,0.0,94,0.00,,,0.00,weatherlink.com 1.10,2013-05-09 07:34:00,
2013-05-09 03:49:00,57.0,55.0,29.93,SE,145,0.0,0.0,94,0.00,,,0.00,weatherlink.com 1.10,2013-05-09 07:49:00,
2013-05-09 04:04:00,57.2,56.0,29.93,SSE,153,0.0,0.0,94,0.00,,,0.00,weatherlink.com 1.10,2013-05-09 08:04:00,
2013-05-09 04:19:00,57.2,56.0,29.93,SSE,158,0.0,0.0,94,0.00,,,0.00,weatherlink.com 1.10,2013-05-09 08:19:00,
2013-05-09 04:34:00,57.1,55.0,29.92,SSE,158,0.0,0.0,94,0.00,,,0.00,weatherlink.com 1.10,2013-05-09 08:34:00,
2013-05-09 04:49:00,56.8,55.0,29.92,SSE,158,0.0,0.0,94,0.00,,,0.00,weatherlink.com 1.10,2013-05-09 08:49:00,
2013-05-09 05:04:00,56.3,55.0,29.93,SSE,158,0.0,0.0,94,0.00,,,0.00,weatherlink.com 1.10,2013-05-09 09:04:00,
2013-05-09 05:19:00,56.2,55.0,29.93,SSE,158,0.0,0.0,94,0.00,,,0.00,weatherlink.com 1.10,2013-05-09 09:19:00,
2013-05-09 05:35:00,56.0,55.0,29.93,SSE,158,0.0,0.0,95,0.00,,,0.00,weatherlink.com 1.10,2013-05-09 09:35:00,
2013-05-09 05:50:00,56.6,55.0,29.93,ESE,109,1.0,1.0,94,0.00,,,0.00,weatherlink.com 1.10,2013-05-09 09:50:00,
2013-05-09 06:05:00,56.7,55.0,29.94,ENE,77,1.0,1.0,94,0.00,,,0.00,weatherlink.com 1.10,2013-05-09 10:05:00,
2013-05-09 06:20:00,57.5,55.0,29.94,ESE,112,0.0,1.0,92,0.00,,,0.00,weatherlink.com 1.10,2013-05-09 10:20:00,
2013-05-09 06:35:00,57.0,55.0,29.94,ESE,111,0.0,0.0,92,0.00,,,0.00,weatherlink.com 1.10,2013-05-09 10:35:00,
2013-05-09 06:50:00,56.2,54.0,29.94,ESE,112,0.0,0.0,92,0.00,,,0.00,weatherlink.com 1.10,2013-05-09 10:50:00,
2013-05-09 07:05:00,56.1,54.0,29.94,ESE,111,0.0,0.0,93,0.00,,,0.00,weatherlink.com 1.10,2013-05-09 11:05:00,
2013-05-09 07:20:00,56.5,55.0,29.94,ESE,112,0.0,0.0,93,0.00,,,0.00,weatherlink.com 1.10,2013-05-09 11:20:00,
2013-05-09 07:35:00,57.1,55.0,29.94,ESE,111,0.0,0.0,93,0.00,,,0.00,weatherlink.com 1.10,2013-05-09 11:35:00,
2013-05-09 07:50:00,59.1,57.0,29.95,ESE,111,0.0,0.0,93,0.00,,,0.00,weatherlink.com 1.10,2013-05-09 11:50:00,
2013-05-09 08:05:00,62.0,59.0,29.95,ESE,112,0.0,0.0,90,0.00,,,0.00,weatherlink.com 1.10,2013-05-09 12:05:00,
2013-05-09 08:20:00,65.1,60.0,29.95,ESE,112,0.0,0.0,84,0.00,,,0.00,weatherlink.com 1.10,2013-05-09 12:20:00,
2013-05-09 08:35:00,67.3,61.0,29.95,ESE,111,0.0,1.0,79,0.00,,,0.00,weatherlink.com 1.10,2013-05-09 12:35:00,
2013-05-09 08:50:00,68.7,60.0,29.95,ESE,114,0.0,0.0,74,0.00,,,0.00,weatherlink.com 1.10,2013-05-09 12:50:00,
2013-05-09 09:05:00,68.5,59.0,29.96,SE,145,0.0,0.0,71,0.00,,,0.00,weatherlink.com 1.10,2013-05-09 13:05:00,
2013-05-09 09:20:00,68.2,58.0,29.96,ESE,119,0.0,2.0,71,0.00,,,0.00,weatherlink.com 1.10,2013-05-09 13:20:00,
2013-05-09 09:35:00,69.7,61.0,29.96,NE,39,2.0,2.0,73,0.00,,,0.00,weatherlink.com 1.10,2013-05-09 13:35:00,
2013-05-09 09:50:00,69.9,59.0,29.95,SW,225,1.0,3.0,69,0.00,,,0.00,weatherlink.com 1.10,2013-05-09 13:50:00,
2013-05-09 10:05:00,71.5,59.0,29.95,WSW,257,0.0,3.0,65,0.00,,,0.00,weatherlink.com 1.10,2013-05-09 14:05:00,
2013-05-09 10:20:00,73.4,59.0,29.95,ESE,103,1.0,3.0,62,0.00,,,0.00,weatherlink.com 1.10,2013-05-09 14:20:00,
2013-05-09 10:35:00,74.1,60.0,29.95,North,4,2.0,6.0,61,0.00,,,0.00,weatherlink.com 1.10,2013-05-09 14:35:00,
2013-05-09 10:50:00,74.8,60.0,29.95,NW,312,2.0,3.0,61,0.00,,,0.00,weatherlink.com 1.10,2013-05-09 14:50:00,
2013-05-09 11:05:00,75.7,60.0,29.95,SW,218,1.0,4.0,59,0.00,,,0.00,weatherlink.com 1.10,2013-05-09 15:05:00,
2013-05-09 11:20:00,75.9,60.0,29.95,SSW,193,1.0,3.0,58,0.00,,,0.00,weatherlink.com 1.10,2013-05-09 15:20:00,
2013-05-09 11:35:00,77.7,60.0,29.95,SE,132,0.0,4.0,55,0.00,,,0.00,weatherlink.com 1.10,2013-05-09 15:35:00,
2013-05-09 11:50:00,78.6,58.0,29.95,ENE,58,2.0,6.0,49,0.00,,,0.00,weatherlink.com 1.10,2013-05-09 15:50:00,
2013-05-09 12:05:00,79.0,56.0,29.95,ESE,111,2.0,9.0,46,0.00,,,0.00,weatherlink.com 1.10,2013-05-09 16:05:00,
2013-05-09 12:20:00,78.3,55.0,29.95,SE,130,6.0,16.0,44,0.00,,,0.00,weatherlink.com 1.10,2013-05-09 16:20:00,
2013-05-09 12:35:00,79.5,54.0,29.95,West,267,2.0,7.0,41,0.00,,,0.00,weatherlink.com 1.10,2013-05-09 16:35:00,
2013-05-09 12:50:00,78.8,55.0,29.95,SSE,150,8.0,9.0,44,0.00,,,0.00,weatherlink.com 1.10,2013-05-09 16:50:00,
2013-05-09 13:05:00,79.5,55.0,29.94,NNE,18,2.0,9.0,43,0.00,,,0.00,weatherlink.com 1.10,2013-05-09 17:05:00,
2013-05-09 13:21:00,80.2,55.0,29.94,NE,35,1.0,11.0,42,0.00,,,0.00,weatherlink.com 1.10,2013-05-09 17:21:00,
2013-05-09 13:36:00,79.2,55.0,29.93,NNW,339,2.0,5.0,43,0.00,,,0.00,weatherlink.com 1.10,2013-05-09 17:36:00,
2013-05-09 13:51:00,79.3,56.0,29.93,SSE,160,4.0,6.0,45,0.00,,,0.00,weatherlink.com 1.10,2013-05-09 17:51:00,
2013-05-09 14:06:00,79.1,55.0,29.93,SW,232,3.0,10.0,44,0.00,,,0.00,weatherlink.com 1.10,2013-05-09 18:06:00,
2013-05-09 14:21:00,79.8,55.0,29.92,SSE,149,1.0,10.0,42,0.00,,,0.00,weatherlink.com 1.10,2013-05-09 18:21:00,
2013-05-09 14:36:00,79.2,57.0,29.91,SSE,154,2.0,7.0,46,0.00,,,0.00,weatherlink.com 1.10,2013-05-09 18:36:00,
2013-05-09 14:52:00,78.7,57.0,29.91,SW,235,4.0,4.0,48,0.00,,,0.00,weatherlink.com 1.10,2013-05-09 18:52:00,
2013-05-09 15:06:00,76.3,58.0,29.91,ESE,120,1.0,6.0,54,0.00,,,0.00,weatherlink.com 1.10,2013-05-09 19:06:00,
2013-05-09 15:21:00,74.6,59.0,29.91,South,187,3.0,9.0,59,0.00,,,0.00,weatherlink.com 1.10,2013-05-09 19:21:00,
2013-05-09 15:36:00,68.6,62.0,29.91,South,170,0.0,3.0,78,0.09,,,0.09,weatherlink.com 1.10,2013-05-09 19:36:00,
2013-05-09 15:51:00,67.6,63.0,29.90,South,170,0.0,0.0,86,0.09,,,0.09,weatherlink.com 1.10,2013-05-09 19:51:00,
2013-05-09 16:06:00,67.2,63.0,29.90,South,170,0.0,1.0,87,0.09,,,0.09,weatherlink.com 1.10,2013-05-09 20:06:00,
2013-05-09 16:21:00,66.8,64.0,29.91,South,170,0.0,0.0,89,0.08,,,0.09,weatherlink.com 1.10,2013-05-09 20:21:00,
2013-05-09 16:36:00,66.2,63.0,29.92,WSW,249,1.0,1.0,88,0.00,,,0.09,weatherlink.com 1.10,2013-05-09 20:36:00,
2013-05-09 16:51:00,65.4,62.0,29.91,NNW,346,2.0,3.0,88,0.06,,,0.15,weatherlink.com 1.10,2013-05-09 20:51:00,
2013-05-09 17:06:00,64.7,62.0,29.91,NNE,20,0.0,1.0,92,0.09,,,0.18,weatherlink.com 1.10,2013-05-09 21:06:00,
2013-05-09 17:21:00,64.4,62.0,29.90,NNE,20,0.0,0.0,93,0.11,,,0.20,weatherlink.com 1.10,2013-05-09 21:21:00,
2013-05-09 17:36:00,65.0,63.0,29.89,East,88,0.0,1.0,94,0.10,,,0.20,weatherlink.com 1.10,2013-05-09 21:36:00,
2013-05-09 17:51:00,66.8,65.0,29.88,WSW,249,0.0,1.0,94,0.04,,,0.20,weatherlink.com 1.10,2013-05-09 21:51:00,
2013-05-09 18:06:00,68.5,66.0,29.88,SE,126,0.0,0.0,90,0.01,,,0.20,weatherlink.com 1.10,2013-05-09 22:06:00,
2013-05-09 18:21:00,68.5,65.0,29.87,SE,126,0.0,0.0,89,0.00,,,0.20,weatherlink.com 1.10,2013-05-09 22:21:00,
2013-05-09 18:36:00,67.8,65.0,29.86,ESE,111,0.0,0.0,89,0.00,,,0.20,weatherlink.com 1.10,2013-05-09 22:36:00,
2013-05-09 18:51:00,66.9,64.0,29.86,ESE,114,0.0,1.0,90,0.00,,,0.20,weatherlink.com 1.10,2013-05-09 22:51:00,
2013-05-09 19:06:00,66.9,64.0,29.85,SSE,167,0.0,2.0,91,0.00,,,0.20,weatherlink.com 1.10,2013-05-09 23:06:00,
2013-05-09 19:21:00,66.8,64.0,29.84,East,94,0.0,5.0,90,0.00,,,0.20,weatherlink.com 1.10,2013-05-09 23:21:00,
2013-05-09 19:36:00,66.0,63.0,29.84,SE,146,2.0,4.0,90,0.00,,,0.20,weatherlink.com 1.10,2013-05-09 23:36:00,
2013-05-09 19:51:00,65.3,63.0,29.85,NNE,20,1.0,2.0,91,0.01,,,0.21,weatherlink.com 1.10,2013-05-09 23:51:00,
2013-05-09 20:06:00,64.9,63.0,29.84,SE,134,0.0,2.0,92,0.01,,,0.21,weatherlink.com 1.10,2013-05-10 00:06:00,
2013-05-09 20:21:00,64.6,63.0,29.84,SSE,150,0.0,1.0,93,0.01,,,0.21,weatherlink.com 1.10,2013-05-10 00:21:00,
2013-05-09 20:36:00,64.3,63.0,29.83,SW,221,0.0,1.0,94,0.01,,,0.21,weatherlink.com 1.10,2013-05-10 00:36:00,
2013-05-09 20:51:00,64.0,62.0,29.82,SSE,150,0.0,1.0,94,0.00,,,0.21,weatherlink.com 1.10,2013-05-10 00:51:00,
2013-05-09 21:06:00,63.9,62.0,29.83,WSW,243,0.0,4.0,94,0.00,,,0.21,weatherlink.com 1.10,2013-05-10 01:06:00,
2013-05-09 21:21:00,63.9,62.0,29.82,WSW,248,0.0,4.0,94,0.00,,,0.21,weatherlink.com 1.10,2013-05-10 01:21:00,
2013-05-09 21:36:00,64.2,62.0,29.82,South,181,0.0,2.0,93,0.00,,,0.21,weatherlink.com 1.10,2013-05-10 01:36:00,
2013-05-09 21:51:00,64.1,62.0,29.82,SSE,165,1.0,4.0,93,0.01,,,0.22,weatherlink.com 1.10,2013-05-10 01:51:00,
2013-05-09 22:06:00,64.2,62.0,29.83,SE,142,0.0,5.0,93,0.03,,,0.24,weatherlink.com 1.10,2013-05-10 02:06:00,
2013-05-09 22:21:00,64.4,62.0,29.84,NNW,342,1.0,3.0,92,0.06,,,0.27,weatherlink.com 1.10,2013-05-10 02:21:00,
2013-05-09 22:36:00,63.6,62.0,29.85,NNW,330,1.0,5.0,94,0.07,,,0.28,weatherlink.com 1.10,2013-05-10 02:36:00,
2013-05-09 22:51:00,63.5,62.0,29.85,NNE,18,1.0,3.0,94,0.06,,,0.28,weatherlink.com 1.10,2013-05-10 02:51:00,
2013-05-09 23:06:00,63.3,62.0,29.85,East,89,0.0,1.0,94,0.04,,,0.28,weatherlink.com 1.10,2013-05-10 03:06:00,
2013-05-09 23:21:00,63.5,62.0,29.85,SW,221,2.0,3.0,94,0.00,,,0.28,weatherlink.com 1.10,2013-05-10 03:21:00,
2013-05-09 23:36:00,63.5,62.0,29.84,ESE,103,0.0,4.0,94,0.01,,,0.29,weatherlink.com 1.10,2013-05-10 03:36:00,
2013-05-09 23:51:00,63.5,62.0,29.84,South,179,1.0,5.0,93,0.01,,,0.29,weatherlink.com 1.10,2013-05-10 03:51:00,